Silverado, California
Current Conditions -  °F | °C
As of 1:56 PM on Saturday 20 Dec 2014 (Local Time) from KAJO Reporting Station
Haze Haze  
Wind Chill: 14°   Ceiling: Unl
Heat Index: 14°   Visibility: 5mi
Dew Point:   Wind: 0mph
Humidity: 72%   Direction: NA
Pressure: 30.13"   Gusts: NA
Location:  33.75°N, 117.64°W
Report Text: KAJO 202156Z AUTO 00000KT 5SM HZ CLR 14/09 A3013 RMK AO2 T01440094 SLP199 $
Loading
Personal Weather Stations






























Interactive Weather Map New forecast layout! Learn more

10-Day Weather Forecast

Advertisements
Track Severe Weather on mobile